Time;durP1;ratioP1;P1;durP2;ratioP2;P2;SDS_P1;SDS_P2;PMS_P1;PMS_P2;Temp;Humidity;BMP_temperature;BMP_pressure;BME280_temperature;BME280_humidity;BME280_pressure;Samples;Min_cycle;Max_cycle;Signal;HPM_P1;HPM_P2
2022/12/06 00:01:13;;;;;;;8.80;4.65;;;;;;;;;;5083034;28;20091;-80
2022/12/06 00:03:42;;;;;;;10.15;4.43;;;;;;;;;;5092387;28;20045;-80
2022/12/06 00:06:16;;;;;;;9.10;4.35;;;;;;;;;;5098987;28;20052;-79
2022/12/06 00:08:44;;;;;;;8.10;4.07;;;;;;;;;;5099564;28;20036;-79
2022/12/06 00:11:13;;;;;;;12.50;4.50;;;;;;;;;;5081975;28;20041;-80
2022/12/06 00:13:41;;;;;;;8.27;4.07;;;;;;;;;;5108396;28;20052;-80
2022/12/06 00:16:09;;;;;;;9.50;3.60;;;;;;;;;;5104599;28;20049;-80
2022/12/06 00:18:37;;;;;;;10.20;4.00;;;;;;;;;;5108231;28;20102;-80
2022/12/06 00:21:08;;;;;;;11.20;4.00;;;;;;;;;;5102363;28;20048;-80
2022/12/06 00:23:40;;;;;;;9.23;4.10;;;;;;;;;;5107137;28;20078;-79
2022/12/06 00:26:07;;;;;;;14.43;4.07;;;;;;;;;;5106246;28;20044;-78
2022/12/06 00:28:36;;;;;;;11.02;3.95;;;;;;;;;;5088262;28;20029;-78
2022/12/06 00:31:05;;;;;;;8.27;3.65;;;;;;;;;;5099460;28;20499;-78
2022/12/06 00:33:34;;;;;;;9.32;4.40;;;;;;;;;;5102632;28;20056;-79
2022/12/06 00:36:05;;;;;;;9.35;3.95;;;;;;;;;;5102967;28;20045;-80
2022/12/06 00:38:35;;;;;;;8.90;4.10;;;;;;;;;;5101441;28;20041;-79
2022/12/06 00:41:06;;;;;;;12.02;4.40;;;;;;;;;;5104007;28;20055;-80
2022/12/06 00:43:34;;;;;;;9.43;3.72;;;;;;;;;;5105347;28;20072;-79
2022/12/06 00:46:02;;;;;;;10.85;3.83;;;;;;;;;;5078851;28;20044;-79
2022/12/06 00:48:29;;;;;;;10.38;3.97;;;;;;;;;;5102066;28;20048;-79
2022/12/06 00:50:57;;;;;;;11.05;4.20;;;;;;;;;;5101305;28;20099;-79
2022/12/06 00:53:25;;;;;;;11.45;4.28;;;;;;;;;;5099611;28;20048;-79
2022/12/06 00:55:55;;;;;;;8.50;3.70;;;;;;;;;;5080867;28;20048;-80
2022/12/06 00:58:22;;;;;;;10.63;3.67;;;;;;;;;;5101224;28;20041;-79
2022/12/06 01:00:50;;;;;;;9.85;3.50;;;;;;;;;;5104829;28;20040;-79
2022/12/06 01:03:19;;;;;;;13.32;3.80;;;;;;;;;;5106283;28;20049;-80
2022/12/06 01:05:48;;;;;;;9.23;3.35;;;;;;;;;;5102300;28;20049;-79
2022/12/06 01:08:16;;;;;;;9.43;3.90;;;;;;;;;;5106250;28;20033;-81
2022/12/06 01:10:50;;;;;;;12.07;4.07;;;;;;;;;;5097387;28;20041;-79
2022/12/06 01:13:18;;;;;;;11.55;3.63;;;;;;;;;;5105291;28;20113;-80
2022/12/06 01:15:46;;;;;;;9.68;3.97;;;;;;;;;;5085906;28;20125;-80
2022/12/06 01:18:13;;;;;;;11.68;3.80;;;;;;;;;;5101546;28;20798;-79
2022/12/06 01:20:40;;;;;;;11.95;3.28;;;;;;;;;;5095717;28;20084;-80
2022/12/06 01:23:08;;;;;;;9.38;3.97;;;;;;;;;;5091201;28;21101;-79
2022/12/06 01:25:36;;;;;;;9.93;3.60;;;;;;;;;;5094158;28;20121;-79
2022/12/06 01:28:04;;;;;;;11.80;3.22;;;;;;;;;;5107931;28;20566;-80
2022/12/06 01:30:31;;;;;;;13.32;4.70;;;;;;;;;;5081990;28;20119;-79
2022/12/06 01:32:58;;;;;;;15.45;3.97;;;;;;;;;;5097856;28;20076;-80
2022/12/06 01:35:28;;;;;;;7.72;3.40;;;;;;;;;;5098982;28;20823;-79
2022/12/06 01:37:55;;;;;;;8.85;4.07;;;;;;;;;;5097270;28;20067;-79
2022/12/06 01:40:29;;;;;;;14.52;3.95;;;;;;;;;;5101249;28;20049;-80
2022/12/06 01:42:56;;;;;;;12.93;3.65;;;;;;;;;;5095034;28;20049;-79
2022/12/06 01:45:23;;;;;;;10.57;3.58;;;;;;;;;;5105341;28;20140;-79
2022/12/06 01:47:53;;;;;;;15.02;3.65;;;;;;;;;;5086975;28;20048;-79
2022/12/06 01:50:21;;;;;;;8.23;3.88;;;;;;;;;;5107169;28;20074;-79
2022/12/06 01:52:54;;;;;;;10.07;3.20;;;;;;;;;;5108481;28;20048;-81
2022/12/06 01:55:22;;;;;;;13.43;3.42;;;;;;;;;;5095046;28;20073;-80
2022/12/06 01:57:53;;;;;;;7.63;3.30;;;;;;;;;;5096957;28;20699;-80
2022/12/06 02:00:20;;;;;;;14.35;3.38;;;;;;;;;;5106991;28;20093;-80
2022/12/06 02:02:48;;;;;;;6.70;3.20;;;;;;;;;;5081211;28;21349;-79
2022/12/06 02:05:17;;;;;;;10.35;3.42;;;;;;;;;;5099211;28;20098;-80
2022/12/06 02:07:44;;;;;;;7.97;3.05;;;;;;;;;;5080259;28;20052;-80
2022/12/06 02:10:12;;;;;;;7.97;3.05;;;;;;;;;;5107441;28;20048;-80
2022/12/06 02:12:40;;;;;;;12.85;3.40;;;;;;;;;;5095808;28;20048;-79
2022/12/06 02:15:07;;;;;;;7.05;2.80;;;;;;;;;;5092565;28;20101;-79
2022/12/06 02:17:40;;;;;;;13.80;3.65;;;;;;;;;;5103499;28;20044;-80
2022/12/06 02:20:15;;;;;;;9.95;3.83;;;;;;;;;;5085986;28;20044;-80
2022/12/06 02:22:42;;;;;;;13.52;3.78;;;;;;;;;;5079664;28;20045;-79
2022/12/06 02:25:28;;;;;;;13.50;3.75;;;;;;;;;;5092722;28;20100;-80
2022/12/06 02:28:15;;;;;;;9.73;3.00;;;;;;;;;;5103930;28;20104;-79
2022/12/06 02:30:57;;;;;;;12.27;3.35;;;;;;;;;;5107263;28;20040;-79
2022/12/06 02:33:28;;;;;;;11.20;3.42;;;;;;;;;;5078211;28;20107;-80
2022/12/06 02:36:03;;;;;;;9.40;2.92;;;;;;;;;;5103267;28;20058;-80
2022/12/06 02:38:33;;;;;;;8.95;3.35;;;;;;;;;;5098552;28;20071;-79
2022/12/06 02:41:11;;;;;;;7.75;3.38;;;;;;;;;;5099321;28;20060;-80
2022/12/06 02:43:43;;;;;;;7.85;3.45;;;;;;;;;;5099332;28;20052;-80
2022/12/06 02:46:11;;;;;;;10.43;3.50;;;;;;;;;;5100948;28;21077;-79
2022/12/06 02:48:40;;;;;;;12.80;3.13;;;;;;;;;;5101829;28;20053;-80
2022/12/06 02:51:10;;;;;;;9.93;3.45;;;;;;;;;;5103635;28;20088;-79
2022/12/06 02:53:40;;;;;;;9.70;3.60;;;;;;;;;;5084429;28;20056;-79
2022/12/06 02:56:08;;;;;;;10.23;3.20;;;;;;;;;;5098683;28;20164;-79
2022/12/06 02:58:37;;;;;;;7.25;3.10;;;;;;;;;;5089491;28;20230;-79
2022/12/06 03:01:09;;;;;;;13.90;3.85;;;;;;;;;;5106707;28;20096;-79
2022/12/06 03:03:37;;;;;;;7.50;3.00;;;;;;;;;;5080907;28;20094;-80
2022/12/06 03:06:04;;;;;;;6.82;2.85;;;;;;;;;;5104199;28;20100;-79
2022/12/06 03:08:47;;;;;;;9.07;2.90;;;;;;;;;;5100169;28;20052;-79
2022/12/06 03:11:15;;;;;;;7.40;2.90;;;;;;;;;;5115920;28;20056;-79
2022/12/06 03:13:45;;;;;;;6.43;2.58;;;;;;;;;;5104630;28;20053;-79
2022/12/06 03:16:16;;;;;;;10.48;2.80;;;;;;;;;;5087981;28;20052;-78
2022/12/06 03:18:55;;;;;;;9.10;2.85;;;;;;;;;;5108714;28;20117;-79
2022/12/06 03:21:30;;;;;;;7.78;2.30;;;;;;;;;;5097951;28;20074;-78
2022/12/06 03:23:58;;;;;;;5.55;2.25;;;;;;;;;;5103820;28;20111;-80
2022/12/06 03:26:28;;;;;;;10.82;2.58;;;;;;;;;;5099938;28;20403;-79
2022/12/06 03:28:56;;;;;;;6.20;2.60;;;;;;;;;;5087466;28;20102;-79
2022/12/06 03:31:28;;;;;;;6.50;2.58;;;;;;;;;;5099186;28;20061;-79
2022/12/06 03:33:58;;;;;;;6.10;2.60;;;;;;;;;;5078839;28;20506;-79
2022/12/06 03:36:26;;;;;;;5.50;2.20;;;;;;;;;;5095080;28;20056;-79
2022/12/06 03:38:55;;;;;;;12.55;2.63;;;;;;;;;;5101809;28;20087;-79
2022/12/06 03:41:25;;;;;;;10.48;2.60;;;;;;;;;;5109395;28;20037;-80
2022/12/06 03:43:52;;;;;;;5.75;2.55;;;;;;;;;;5104895;28;20048;-79
2022/12/06 03:46:23;;;;;;;7.55;2.60;;;;;;;;;;5107140;28;20055;-79
2022/12/06 03:49:02;;;;;;;8.55;2.40;;;;;;;;;;5104047;28;20041;-80
2022/12/06 03:51:30;;;;;;;9.48;2.63;;;;;;;;;;5098524;28;20028;-79
2022/12/06 03:53:59;;;;;;;5.57;2.83;;;;;;;;;;5103183;28;20888;-79
2022/12/06 03:56:26;;;;;;;5.45;2.50;;;;;;;;;;5116810;28;21137;-79
2022/12/06 03:58:53;;;;;;;6.80;2.30;;;;;;;;;;5106047;28;20051;-79
2022/12/06 04:01:21;;;;;;;7.45;2.45;;;;;;;;;;5106417;28;20052;-79
2022/12/06 04:03:48;;;;;;;5.72;2.35;;;;;;;;;;5084618;28;20048;-79
2022/12/06 04:06:16;;;;;;;5.93;2.10;;;;;;;;;;5107952;28;20131;-79
2022/12/06 04:08:44;;;;;;;6.15;2.83;;;;;;;;;;5078791;28;20051;-79
2022/12/06 04:11:11;;;;;;;6.40;2.28;;;;;;;;;;5106558;28;20072;-80
2022/12/06 04:13:39;;;;;;;7.72;2.40;;;;;;;;;;5101620;28;20069;-79
2022/12/06 04:18:09;;;;;;;7.97;2.35;;;;;;;;;;5102642;28;20163;-80
2022/12/06 04:18:55;;;;;;;7.80;2.28;;;;;;;;;;5107340;28;20059;-80
2022/12/06 04:23:59;;;;;;;5.35;2.15;;;;;;;;;;5104131;28;20056;-79
2022/12/06 04:26:26;;;;;;;8.50;2.70;;;;;;;;;;5104563;28;20053;-80
2022/12/06 04:39:59;;;;;;;6.32;2.15;;;;;;;;;;5105470;28;20051;-79
2022/12/06 04:45:13;;;;;;;9.05;2.30;;;;;;;;;;5104493;28;20135;-80
2022/12/06 04:47:43;;;;;;;8.20;2.15;;;;;;;;;;5103529;28;20048;-79
2022/12/06 04:50:12;;;;;;;7.50;2.10;;;;;;;;;;5103661;28;20044;-79
2022/12/06 04:52:42;;;;;;;7.53;2.10;;;;;;;;;;5101365;28;20115;-79
2022/12/06 04:55:10;;;;;;;6.78;2.08;;;;;;;;;;5105647;28;20147;-81
2022/12/06 04:57:37;;;;;;;6.30;2.45;;;;;;;;;;5101810;28;20044;-79
2022/12/06 05:00:08;;;;;;;8.55;2.60;;;;;;;;;;5108297;28;20075;-80
2022/12/06 05:02:35;;;;;;;7.28;2.30;;;;;;;;;;5100613;28;20110;-79
2022/12/06 05:05:09;;;;;;;;;;;;;;;;;;5088955;28;20107;-79
2022/12/06 05:07:36;;;;;;;6.70;2.00;;;;;;;;;;5097682;28;43871;-79
2022/12/06 05:10:03;;;;;;;5.18;1.83;;;;;;;;;;5101576;28;20048;-78
2022/12/06 05:12:31;;;;;;;9.88;1.85;;;;;;;;;;5101007;28;20049;-78
2022/12/06 05:14:58;;;;;;;3.65;1.92;;;;;;;;;;5098145;28;20051;-79
2022/12/06 05:17:26;;;;;;;5.75;2.08;;;;;;;;;;5095337;28;20063;-79
2022/12/06 05:19:53;;;;;;;3.05;1.70;;;;;;;;;;5092644;28;20052;-79
2022/12/06 05:22:20;;;;;;;6.95;1.70;;;;;;;;;;5093840;28;20061;-79
2022/12/06 05:24:48;;;;;;;4.32;1.77;;;;;;;;;;5093485;28;20049;-79
2022/12/06 05:27:15;;;;;;;7.15;1.88;;;;;;;;;;5105806;28;20079;-79
2022/12/06 05:29:42;;;;;;;5.82;1.95;;;;;;;;;;5104231;28;20100;-79
2022/12/06 05:32:10;;;;;;;9.52;1.88;;;;;;;;;;5069212;28;20671;-79
2022/12/06 05:34:38;;;;;;;4.35;1.80;;;;;;;;;;5084751;28;20052;-79
2022/12/06 05:37:08;;;;;;;6.95;1.92;;;;;;;;;;5092646;28;20429;-79
2022/12/06 05:39:37;;;;;;;5.57;1.75;;;;;;;;;;5098274;28;20114;-78
2022/12/06 05:42:05;;;;;;;5.45;2.03;;;;;;;;;;5081889;28;20059;-79
2022/12/06 05:44:46;;;;;;;9.27;1.73;;;;;;;;;;5094017;28;20132;-78
2022/12/06 05:47:25;;;;;;;3.55;1.60;;;;;;;;;;5095262;28;20059;-80
2022/12/06 05:49:55;;;;;;;9.50;1.83;;;;;;;;;;5092852;28;20037;-79
2022/12/06 05:52:26;;;;;;;9.27;1.80;;;;;;;;;;5092565;28;20053;-79
2022/12/06 05:54:53;;;;;;;5.53;1.77;;;;;;;;;;5092768;28;20067;-79
2022/12/06 05:57:20;;;;;;;7.63;1.98;;;;;;;;;;5098871;28;20504;-79
2022/12/06 05:59:48;;;;;;;6.90;1.80;;;;;;;;;;5094663;28;20055;-79
2022/12/06 06:02:15;;;;;;;5.93;1.70;;;;;;;;;;5094285;28;20044;-78
2022/12/06 06:04:42;;;;;;;5.18;1.60;;;;;;;;;;5096112;28;20070;-79
2022/12/06 06:07:09;;;;;;;7.43;2.20;;;;;;;;;;5080425;28;20770;-79
2022/12/06 06:09:37;;;;;;;5.18;1.70;;;;;;;;;;5095209;28;20076;-78
2022/12/06 06:12:04;;;;;;;6.80;1.52;;;;;;;;;;5092666;28;20049;-79
2022/12/06 06:14:38;;;;;;;5.82;1.60;;;;;;;;;;5092646;28;20087;-78
2022/12/06 06:17:06;;;;;;;4.75;1.60;;;;;;;;;;5092639;28;20052;-79
2022/12/06 06:19:34;;;;;;;5.47;2.03;;;;;;;;;;5092011;28;20050;-79
2022/12/06 06:22:01;;;;;;;16.15;2.05;;;;;;;;;;5081042;28;20082;-79
2022/12/06 06:24:34;;;;;;;8.65;1.80;;;;;;;;;;5102917;28;20052;-79
2022/12/06 06:27:02;;;;;;;3.50;1.60;;;;;;;;;;5098860;28;20100;-79
2022/12/06 06:29:29;;;;;;;7.68;2.00;;;;;;;;;;5104754;28;20132;-80
2022/12/06 06:31:57;;;;;;;8.45;1.73;;;;;;;;;;5095142;28;20048;-80
2022/12/06 06:34:25;;;;;;;7.30;1.70;;;;;;;;;;5107428;28;20049;-80
2022/12/06 06:36:52;;;;;;;3.95;1.90;;;;;;;;;;5101653;28;20064;-80
2022/12/06 06:39:20;;;;;;;8.77;2.20;;;;;;;;;;5069741;28;20052;-80
2022/12/06 06:42:01;;;;;;;5.88;2.40;;;;;;;;;;5098572;28;20062;-79
2022/12/06 06:44:28;;;;;;;5.30;2.72;;;;;;;;;;5100334;28;20064;-80
2022/12/06 06:46:55;;;;;;;5.32;2.15;;;;;;;;;;5097379;28;20055;-79
2022/12/06 06:49:23;;;;;;;8.27;2.20;;;;;;;;;;5106396;28;20045;-80
2022/12/06 06:51:50;;;;;;;6.97;2.20;;;;;;;;;;5107734;28;20045;-80
2022/12/06 06:54:20;;;;;;;5.00;2.10;;;;;;;;;;5107432;28;20142;-80
2022/12/06 06:56:48;;;;;;;6.07;2.17;;;;;;;;;;5104749;28;20072;-80
2022/12/06 06:59:15;;;;;;;4.88;2.10;;;;;;;;;;5099101;28;20029;-80
2022/12/06 07:01:46;;;;;;;10.48;3.25;;;;;;;;;;5086669;28;20061;-80
2022/12/06 07:04:13;;;;;;;7.88;3.08;;;;;;;;;;5107944;28;20044;-80
2022/12/06 07:06:40;;;;;;;5.53;2.20;;;;;;;;;;5099314;28;20040;-80
2022/12/06 07:09:08;;;;;;;4.78;2.35;;;;;;;;;;5098440;28;20098;-80
2022/12/06 07:11:38;;;;;;;6.82;2.13;;;;;;;;;;5096293;27;20056;-79
2022/12/06 07:14:06;;;;;;;5.93;2.15;;;;;;;;;;5090184;28;20048;-78
2022/12/06 07:16:33;;;;;;;7.38;2.10;;;;;;;;;;5101502;28;20804;-79
2022/12/06 07:19:00;;;;;;;11.75;2.10;;;;;;;;;;5099492;28;20135;-79
2022/12/06 07:21:35;;;;;;;5.25;1.75;;;;;;;;;;5092531;28;20151;-79
2022/12/06 07:24:08;;;;;;;3.72;1.90;;;;;;;;;;5072774;28;34488;-81
2022/12/06 07:26:41;;;;;;;5.65;1.70;;;;;;;;;;5056065;28;20117;-79
2022/12/06 07:29:11;;;;;;;6.47;1.73;;;;;;;;;;5055920;28;21084;-81
2022/12/06 07:31:39;;;;;;;3.15;1.60;;;;;;;;;;5078892;28;20142;-81
2022/12/06 07:34:09;;;;;;;7.70;1.73;;;;;;;;;;5071706;28;20056;-80
2022/12/06 07:36:36;;;;;;;4.70;1.80;;;;;;;;;;5090586;28;20067;-80
2022/12/06 07:39:04;;;;;;;11.25;2.00;;;;;;;;;;5082706;28;20487;-81
2022/12/06 07:47:11;;;;;;;5.97;1.77;;;;;;;;;;5090213;28;20056;-80
2022/12/06 07:49:39;;;;;;;4.90;3.03;;;;;;;;;;5082110;28;20105;-81
2022/12/06 07:52:07;;;;;;;7.97;3.33;;;;;;;;;;5082554;28;20036;-80
2022/12/06 07:54:34;;;;;;;5.32;2.90;;;;;;;;;;5081983;28;20049;-80
2022/12/06 07:57:01;;;;;;;5.68;2.67;;;;;;;;;;5095193;28;20047;-80
2022/12/06 07:59:29;;;;;;;10.32;2.53;;;;;;;;;;5080413;28;20084;-81
2022/12/06 08:01:56;;;;;;;7.07;2.53;;;;;;;;;;5082083;28;20049;-80
2022/12/06 08:04:24;;;;;;;6.45;2.40;;;;;;;;;;5081120;28;20418;-81
2022/12/06 08:06:55;;;;;;;10.20;2.25;;;;;;;;;;5078456;28;20045;-80
2022/12/06 08:09:23;;;;;;;7.60;2.30;;;;;;;;;;5079685;28;20119;-80
2022/12/06 08:11:50;;;;;;;6.55;2.28;;;;;;;;;;5082450;28;20037;-80
2022/12/06 08:14:17;;;;;;;9.30;2.83;;;;;;;;;;5065386;28;20063;-80
2022/12/06 08:16:44;;;;;;;4.20;2.33;;;;;;;;;;5066297;28;20057;-80
2022/12/06 08:19:12;;;;;;;6.43;2.20;;;;;;;;;;5063792;28;20135;-80
2022/12/06 08:21:43;;;;;;;5.95;2.15;;;;;;;;;;5081799;28;20049;-81
2022/12/06 08:24:11;;;;;;;5.32;2.17;;;;;;;;;;5081784;28;20529;-80
2022/12/06 08:26:38;;;;;;;6.75;2.47;;;;;;;;;;5071917;28;20051;-81
2022/12/06 08:29:05;;;;;;;11.32;2.85;;;;;;;;;;5069549;28;20049;-82
2022/12/06 08:31:35;;;;;;;9.55;3.17;;;;;;;;;;5068249;28;20037;-80
2022/12/06 08:34:03;;;;;;;5.40;2.80;;;;;;;;;;5088587;28;20095;-81
2022/12/06 08:36:31;;;;;;;4.68;2.03;;;;;;;;;;5083501;28;20051;-80
2022/12/06 08:38:59;;;;;;;5.85;2.38;;;;;;;;;;5094875;28;20047;-81
2022/12/06 08:44:13;;;;;;;6.50;2.00;;;;;;;;;;5086349;28;20854;-80
2022/12/06 08:46:43;;;;;;;11.93;2.20;;;;;;;;;;5082023;28;20102;-80
2022/12/06 08:49:11;;;;;;;4.40;2.13;;;;;;;;;;5062450;28;20112;-81
2022/12/06 08:51:41;;;;;;;5.03;2.00;;;;;;;;;;5085928;28;20025;-80
2022/12/06 08:54:11;;;;;;;8.02;2.28;;;;;;;;;;5083024;28;20056;-80
2022/12/06 08:56:42;;;;;;;4.82;2.28;;;;;;;;;;5061042;28;20057;-80
2022/12/06 08:59:10;;;;;;;5.20;2.38;;;;;;;;;;5086786;28;20984;-80
2022/12/06 09:01:37;;;;;;;5.82;2.58;;;;;;;;;;5067829;28;20056;-80
2022/12/06 09:04:06;;;;;;;7.97;2.45;;;;;;;;;;5083230;28;20080;-80
2022/12/06 09:06:34;;;;;;;8.23;2.72;;;;;;;;;;5081109;28;20090;-80
2022/12/06 09:09:01;;;;;;;9.60;2.72;;;;;;;;;;5071297;28;20045;-80
2022/12/06 09:11:29;;;;;;;9.30;2.80;;;;;;;;;;5082475;28;20068;-80
2022/12/06 09:13:57;;;;;;;9.45;2.92;;;;;;;;;;5073089;28;20056;-80
2022/12/06 09:16:24;;;;;;;5.90;2.53;;;;;;;;;;5082884;28;20094;-79
2022/12/06 09:18:55;;;;;;;5.32;2.45;;;;;;;;;;5085127;28;20049;-80
2022/12/06 09:21:23;;;;;;;6.00;2.30;;;;;;;;;;5077888;28;20039;-79
2022/12/06 09:23:53;;;;;;;6.13;2.58;;;;;;;;;;5083174;28;20075;-79
2022/12/06 09:26:21;;;;;;;5.30;2.63;;;;;;;;;;5099556;28;20044;-80
2022/12/06 09:28:49;;;;;;;7.22;2.58;;;;;;;;;;5086679;28;20679;-79
2022/12/06 09:31:17;;;;;;;8.60;2.67;;;;;;;;;;5092470;28;20033;-79
2022/12/06 09:33:45;;;;;;;5.40;2.35;;;;;;;;;;5092892;28;20057;-79
2022/12/06 09:36:15;;;;;;;8.00;2.58;;;;;;;;;;5105048;28;20040;-79
2022/12/06 09:38:43;;;;;;;6.22;2.00;;;;;;;;;;5093559;28;20109;-79
2022/12/06 09:41:19;;;;;;;7.00;2.50;;;;;;;;;;5079800;28;20057;-79
2022/12/06 09:44:07;;;;;;;8.60;2.80;;;;;;;;;;5090932;28;20804;-79
2022/12/06 09:46:40;;;;;;;3.90;1.90;;;;;;;;;;5090113;28;20144;-79
2022/12/06 09:49:11;;;;;;;5.07;1.92;;;;;;;;;;5095869;28;20045;-79
2022/12/06 09:52:04;;;;;;;3.13;1.80;;;;;;;;;;5087607;28;20033;-79
2022/12/06 09:54:32;;;;;;;3.13;2.10;;;;;;;;;;5091912;28;20056;-79
2022/12/06 09:57:06;;;;;;;4.18;1.60;;;;;;;;;;5095827;28;20052;-79
2022/12/06 09:59:33;;;;;;;;;;;;;;;;;;5088985;28;20913;-77
2022/12/06 10:02:12;;;;;;;5.18;1.95;;;;;;;;;;5060556;28;40922;-77
2022/12/06 10:04:40;;;;;;;4.03;1.17;;;;;;;;;;5070149;28;20053;-78
2022/12/06 10:07:26;;;;;;;10.00;1.80;;;;;;;;;;5047827;28;20830;-77
2022/12/06 10:10:08;;;;;;;3.55;1.48;;;;;;;;;;5069284;28;20080;-78
2022/12/06 10:12:55;;;;;;;3.83;1.40;;;;;;;;;;5067052;28;20135;-78
2022/12/06 10:15:45;;;;;;;5.93;1.48;;;;;;;;;;5073658;28;20047;-79
2022/12/06 10:18:32;;;;;;;3.65;1.48;;;;;;;;;;5061559;28;20052;-78
2022/12/06 10:21:05;;;;;;;1.77;1.10;;;;;;;;;;5070842;28;20049;-77
2022/12/06 10:23:32;;;;;;;4.03;1.30;;;;;;;;;;5069523;28;20056;-78
2022/12/06 10:26:12;;;;;;;2.83;1.33;;;;;;;;;;5072321;28;20053;-78
2022/12/06 10:28:44;;;;;;;5.70;1.35;;;;;;;;;;5068935;28;20045;-78
2022/12/06 10:31:18;;;;;;;6.35;1.60;;;;;;;;;;5079337;28;21197;-78
2022/12/06 10:33:45;;;;;;;;;;;;;;;;;;5071386;28;20049;-78
2022/12/06 10:36:14;;;;;;;6.65;1.60;;;;;;;;;;5077301;28;45110;-78
2022/12/06 10:38:45;;;;;;;5.03;1.83;;;;;;;;;;5068813;28;20099;-79
2022/12/06 10:41:35;;;;;;;5.13;2.03;;;;;;;;;;5060677;28;20526;-77
2022/12/06 10:44:20;;;;;;;6.22;1.60;;;;;;;;;;5072323;28;20057;-77
2022/12/06 10:47:03;;;;;;;5.72;2.00;;;;;;;;;;5072623;28;20131;-77
2022/12/06 10:50:06;;;;;;;10.00;2.10;;;;;;;;;;5067295;28;20053;-77
2022/12/06 10:52:34;;;;;;;6.85;2.20;;;;;;;;;;5025710;28;20337;-78
2022/12/06 10:55:10;;;;;;;6.15;1.90;;;;;;;;;;5024628;28;20046;-77
2022/12/06 10:57:46;;;;;;;5.82;2.70;;;;;;;;;;5014927;28;20128;-77
2022/12/06 11:00:18;;;;;;;11.15;2.55;;;;;;;;;;5025277;28;20860;-77
2022/12/06 11:03:04;;;;;;;6.10;2.35;;;;;;;;;;5024368;28;20097;-77
2022/12/06 11:05:38;;;;;;;8.32;2.63;;;;;;;;;;5031152;28;20164;-77
2022/12/06 11:08:21;;;;;;;7.85;2.50;;;;;;;;;;5025581;28;20140;-77
2022/12/06 11:10:48;;;;;;;7.78;2.50;;;;;;;;;;5035970;28;20053;-77
2022/12/06 11:13:31;;;;;;;4.70;1.98;;;;;;;;;;5028456;28;20871;-78
2022/12/06 11:16:18;;;;;;;6.15;1.95;;;;;;;;;;5026568;28;20042;-78
2022/12/06 11:18:47;;;;;;;5.47;2.38;;;;;;;;;;5024211;28;20104;-78
2022/12/06 11:21:21;;;;;;;5.97;2.30;;;;;;;;;;5024808;28;20151;-78
2022/12/06 11:24:07;;;;;;;5.32;1.90;;;;;;;;;;5024093;28;20061;-78
2022/12/06 11:26:49;;;;;;;5.25;1.83;;;;;;;;;;5034273;28;20818;-78
2022/12/06 11:29:16;;;;;;;5.93;1.98;;;;;;;;;;5044875;28;20511;-78
2022/12/06 11:31:53;;;;;;;5.85;1.95;;;;;;;;;;5041063;28;20508;-78
2022/12/06 11:34:42;;;;;;;6.32;2.10;;;;;;;;;;5055985;28;20510;-78
2022/12/06 11:37:14;;;;;;;11.23;2.42;;;;;;;;;;5038909;28;20053;-78
2022/12/06 11:39:42;;;;;;;7.10;2.15;;;;;;;;;;5041051;28;20053;-79
2022/12/06 11:42:10;;;;;;;5.13;2.35;;;;;;;;;;5046505;28;20052;-78
2022/12/06 11:44:37;;;;;;;8.30;2.25;;;;;;;;;;5046706;28;20140;-78
2022/12/06 11:47:05;;;;;;;5.15;2.40;;;;;;;;;;5050827;28;20050;-78
2022/12/06 11:49:40;;;;;;;6.40;2.65;;;;;;;;;;5046498;28;20053;-78
2022/12/06 11:52:30;;;;;;;9.07;2.20;;;;;;;;;;5048454;28;20149;-78
2022/12/06 11:54:59;;;;;;;3.95;2.25;;;;;;;;;;5051501;28;20075;-78
2022/12/06 11:57:32;;;;;;;6.30;2.58;;;;;;;;;;5052299;28;20038;-78
2022/12/06 12:00:07;;;;;;;7.60;2.70;;;;;;;;;;5053373;28;20057;-78
2022/12/06 12:02:34;;;;;;;5.10;2.40;;;;;;;;;;5051919;28;20135;-78
2022/12/06 12:05:15;;;;;;;6.43;2.40;;;;;;;;;;5062765;28;20092;-78
2022/12/06 12:07:44;;;;;;;4.10;2.47;;;;;;;;;;5050100;28;20058;-78
2022/12/06 12:10:31;;;;;;;5.57;2.60;;;;;;;;;;5049742;28;20053;-79
2022/12/06 12:15:53;;;;;;;15.63;2.60;;;;;;;;;;5051000;28;20144;-78
2022/12/06 12:18:26;;;;;;;5.07;2.85;;;;;;;;;;5047511;28;20058;-78
2022/12/06 12:20:54;;;;;;;5.28;2.47;;;;;;;;;;5057038;28;20053;-78
2022/12/06 12:23:31;;;;;;;6.50;2.53;;;;;;;;;;5067697;28;20048;-79
2022/12/06 12:26:18;;;;;;;9.57;2.60;;;;;;;;;;5073462;28;20049;-78
2022/12/06 12:28:47;;;;;;;4.85;2.55;;;;;;;;;;5054566;28;20136;-77
2022/12/06 12:31:21;;;;;;;7.97;2.60;;;;;;;;;;5068639;28;20053;-78
2022/12/06 12:34:09;;;;;;;6.72;2.65;;;;;;;;;;5053111;28;20131;-78
2022/12/06 12:36:36;;;;;;;3.55;2.20;;;;;;;;;;5067245;28;20055;-79
2022/12/06 12:39:03;;;;;;;8.43;2.20;;;;;;;;;;5074367;28;20045;-78
2022/12/06 12:41:31;;;;;;;8.05;2.35;;;;;;;;;;5072677;28;20222;-78
2022/12/06 12:44:06;;;;;;;7.05;2.30;;;;;;;;;;5067171;28;20057;-78
2022/12/06 12:46:55;;;;;;;3.53;1.80;;;;;;;;;;5067871;28;20172;-78
2022/12/06 12:49:23;;;;;;;4.18;2.33;;;;;;;;;;5068550;28;20052;-79
2022/12/06 12:51:52;;;;;;;4.25;2.03;;;;;;;;;;5061272;28;20048;-79
2022/12/06 12:54:28;;;;;;;8.05;2.50;;;;;;;;;;5071756;28;20136;-78
2022/12/06 12:56:56;;;;;;;5.53;2.25;;;;;;;;;;5071701;28;20049;-78
2022/12/06 12:59:29;;;;;;;5.82;2.33;;;;;;;;;;5063165;28;20140;-79
2022/12/06 13:02:17;;;;;;;11.02;2.20;;;;;;;;;;5071095;28;20051;-78
2022/12/06 13:04:52;;;;;;;5.82;2.13;;;;;;;;;;5077179;28;20102;-78
2022/12/06 13:07:40;;;;;;;7.93;2.10;;;;;;;;;;5063845;28;20053;-78
2022/12/06 13:10:16;;;;;;;7.28;2.20;;;;;;;;;;5068013;28;20519;-79
2022/12/06 13:12:52;;;;;;;5.75;2.28;;;;;;;;;;5067849;28;20115;-79
2022/12/06 13:15:22;;;;;;;3.90;1.90;;;;;;;;;;5078293;28;20072;-79
2022/12/06 13:17:53;;;;;;;3.80;2.08;;;;;;;;;;5072920;28;20065;-78
2022/12/06 13:20:30;;;;;;;5.20;2.05;;;;;;;;;;5070953;28;20507;-78
2022/12/06 13:23:02;;;;;;;6.22;2.08;;;;;;;;;;5072102;28;20498;-79
2022/12/06 13:25:29;;;;;;;4.28;1.90;;;;;;;;;;5057740;28;20106;-80
2022/12/06 13:27:58;;;;;;;10.30;2.08;;;;;;;;;;5069413;28;20049;-79
2022/12/06 13:30:36;;;;;;;7.20;2.20;;;;;;;;;;5070077;28;20140;-80
2022/12/06 13:33:04;;;;;;;5.13;2.05;;;;;;;;;;5069462;28;20052;-79
2022/12/06 13:35:33;;;;;;;4.07;1.92;;;;;;;;;;5076926;28;20045;-79
2022/12/06 13:38:02;;;;;;;6.68;2.20;;;;;;;;;;5075752;28;20087;-79
2022/12/06 13:40:38;;;;;;;7.70;1.92;;;;;;;;;;5071699;28;20057;-78
2022/12/06 13:43:26;;;;;;;7.13;2.17;;;;;;;;;;5064995;28;20104;-79
2022/12/06 13:45:54;;;;;;;3.97;1.63;;;;;;;;;;5066179;28;20060;-79
2022/12/06 13:48:24;;;;;;;4.35;1.50;;;;;;;;;;5075605;28;20056;-79
2022/12/06 13:50:53;;;;;;;4.70;1.70;;;;;;;;;;5066057;28;20037;-78
2022/12/06 13:53:22;;;;;;;6.55;2.10;;;;;;;;;;5068415;28;20045;-78
2022/12/06 13:55:52;;;;;;;7.53;2.03;;;;;;;;;;5074955;28;20056;-79
2022/12/06 13:58:25;;;;;;;4.38;1.70;;;;;;;;;;5063471;28;20119;-79
2022/12/06 14:00:54;;;;;;;5.32;1.80;;;;;;;;;;5075105;28;20054;-78
2022/12/06 14:03:22;;;;;;;3.05;1.65;;;;;;;;;;5058636;28;20116;-78
2022/12/06 14:06:04;;;;;;;5.05;1.80;;;;;;;;;;5075607;28;20445;-79
2022/12/06 14:08:45;;;;;;;3.70;1.50;;;;;;;;;;5069934;28;20092;-79
2022/12/06 14:11:15;;;;;;;4.65;2.33;;;;;;;;;;5069669;28;20055;-79
2022/12/06 14:13:44;;;;;;;4.07;1.65;;;;;;;;;;5067866;28;20052;-78
2022/12/06 14:16:18;;;;;;;7.85;1.83;;;;;;;;;;5060935;28;20045;-79
2022/12/06 14:18:46;;;;;;;3.30;1.67;;;;;;;;;;5073455;28;20063;-78
2022/12/06 14:21:22;;;;;;;6.10;1.50;;;;;;;;;;5061965;28;20057;-79
2022/12/06 14:23:50;;;;;;;8.60;1.40;;;;;;;;;;5053004;28;20056;-79
2022/12/06 14:26:24;;;;;;;6.38;1.40;;;;;;;;;;5069582;28;20056;-79
2022/12/06 14:28:55;;;;;;;4.18;1.77;;;;;;;;;;5068990;28;20045;-79
2022/12/06 14:31:29;;;;;;;9.63;1.77;;;;;;;;;;5066400;28;20053;-79
2022/12/06 14:33:56;;;;;;;5.50;1.60;;;;;;;;;;5068552;28;20164;-80
2022/12/06 14:36:25;;;;;;;4.40;1.67;;;;;;;;;;5070606;28;20514;-79
2022/12/06 14:38:57;;;;;;;3.58;1.88;;;;;;;;;;5043597;28;20152;-80
2022/12/06 14:44:26;;;;;;;6.38;2.00;;;;;;;;;;5069454;28;20089;-79
2022/12/06 14:46:55;;;;;;;3.80;1.73;;;;;;;;;;5080892;28;20048;-78
2022/12/06 14:52:17;;;;;;;3.67;2.00;;;;;;;;;;5067898;28;20041;-79
2022/12/06 14:54:44;;;;;;;8.80;2.10;;;;;;;;;;5077704;28;20916;-79
2022/12/06 14:57:34;;;;;;;11.23;2.70;;;;;;;;;;5079565;28;21644;-79
2022/12/06 15:00:06;;;;;;;5.28;2.10;;;;;;;;;;5075204;28;20083;-79
2022/12/06 15:03:12;;;;;;;7.85;2.30;;;;;;;;;;5075142;28;20202;-79
2022/12/06 15:05:44;;;;;;;4.57;1.90;;;;;;;;;;5069768;28;20114;-79
2022/12/06 15:08:37;;;;;;;8.45;2.35;;;;;;;;;;5072274;28;20138;-79
2022/12/06 15:11:11;;;;;;;5.85;2.00;;;;;;;;;;5073617;28;20049;-79
2022/12/06 15:13:44;;;;;;;6.78;2.42;;;;;;;;;;5069586;28;20068;-79
2022/12/06 15:16:13;;;;;;;6.55;2.90;;;;;;;;;;5075736;28;20060;-80
2022/12/06 15:18:44;;;;;;;6.13;1.85;;;;;;;;;;5076486;28;20059;-80
2022/12/06 15:21:16;;;;;;;5.38;2.40;;;;;;;;;;5074568;28;20056;-79
2022/12/06 15:24:01;;;;;;;5.85;2.75;;;;;;;;;;5068582;28;20132;-79
2022/12/06 15:26:28;;;;;;;6.10;2.45;;;;;;;;;;5077088;28;20490;-79
2022/12/06 15:28:55;;;;;;;9.43;2.03;;;;;;;;;;5075009;28;20131;-79
2022/12/06 15:31:25;;;;;;;4.15;2.00;;;;;;;;;;5068443;28;21000;-79
2022/12/06 15:33:53;;;;;;;7.68;2.30;;;;;;;;;;5076579;28;20148;-79
2022/12/06 15:36:22;;;;;;;7.40;2.60;;;;;;;;;;5077040;28;20053;-79
2022/12/06 15:38:55;;;;;;;8.27;2.33;;;;;;;;;;5074659;28;20645;-79